GVBA

Rabil Airport

Airport
ICAO code
GVBA
IATA Code
BVC
Summary
ICAO Region
AFI
ICAO Territory
Location

Rabil, Boa Vista Island, Ilhas de Barlavento

Serving
Rabil
Elevation
69 ft
Coordinates
16° 8' 15" N , 22° 53' 22" W
Metar
GVBA 141000Z 01010KT 4800 HZ NSC 25/21 Q1011 NOSIG

Runways

Designator Length Width Surface Rops
3/21 1221 30 ASP Yes/Yes

Airport map

Aerial View

SKYbrary Partners:

Safety knowledge contributed by: